sensor_id;sensor_type;location;lat;lon;timestamp;temperature;humidity
10247;DHT22;5168;47.854;7.944;2024-03-06T00:03:27;0.50;99.90
10247;DHT22;5168;47.854;7.944;2024-03-06T00:08:19;0.70;99.90
10247;DHT22;5168;47.854;7.944;2024-03-06T00:13:10;0.70;99.90
10247;DHT22;5168;47.854;7.944;2024-03-06T00:20:29;1.20;99.90
10247;DHT22;5168;47.854;7.944;2024-03-06T00:27:47;0.40;99.90
10247;DHT22;5168;47.854;7.944;2024-03-06T00:47:16;1.50;99.90
10247;DHT22;5168;47.854;7.944;2024-03-06T00:49:41;1.40;99.90
10247;DHT22;5168;47.854;7.944;2024-03-06T00:52:07;1.20;99.90
10247;DHT22;5168;47.854;7.944;2024-03-06T00:54:33;1.80;99.90
10247;DHT22;5168;47.854;7.944;2024-03-06T00:59:25;1.10;99.90
10247;DHT22;5168;47.854;7.944;2024-03-06T01:04:17;1.30;99.90
10247;DHT22;5168;47.854;7.944;2024-03-06T01:09:08;1.20;99.90
10247;DHT22;5168;47.854;7.944;2024-03-06T01:11:33;1.10;99.90
10247;DHT22;5168;47.854;7.944;2024-03-06T01:13:59;1.20;99.90
10247;DHT22;5168;47.854;7.944;2024-03-06T01:23:43;1.50;99.90
10247;DHT22;5168;47.854;7.944;2024-03-06T01:26:08;0.90;99.90
10247;DHT22;5168;47.854;7.944;2024-03-06T01:28:34;1.00;99.90
10247;DHT22;5168;47.854;7.944;2024-03-06T01:40:44;1.20;99.90
10247;DHT22;5168;47.854;7.944;2024-03-06T01:43:23;1.30;99.90
10247;DHT22;5168;47.854;7.944;2024-03-06T01:45:50;1.10;99.90
10247;DHT22;5168;47.854;7.944;2024-03-06T01:48:24;1.10;99.90
10247;DHT22;5168;47.854;7.944;2024-03-06T01:50:53;1.20;99.90
10247;DHT22;5168;47.854;7.944;2024-03-06T01:53:20;1.90;99.90
10247;DHT22;5168;47.854;7.944;2024-03-06T01:55:46;1.10;99.90
10247;DHT22;5168;47.854;7.944;2024-03-06T02:00:39;1.20;99.90
10247;DHT22;5168;47.854;7.944;2024-03-06T02:03:05;1.20;99.90
10247;DHT22;5168;47.854;7.944;2024-03-06T02:05:32;1.10;99.90
10247;DHT22;5168;47.854;7.944;2024-03-06T02:07:58;1.10;99.90
10247;DHT22;5168;47.854;7.944;2024-03-06T02:10:25;1.20;99.90
10247;DHT22;5168;47.854;7.944;2024-03-06T02:12:52;1.20;99.90
10247;DHT22;5168;47.854;7.944;2024-03-06T02:17:44;1.20;99.90
10247;DHT22;5168;47.854;7.944;2024-03-06T02:20:11;1.10;99.90
10247;DHT22;5168;47.854;7.944;2024-03-06T02:29:56;1.10;99.90
10247;DHT22;5168;47.854;7.944;2024-03-06T02:32:23;1.00;99.90
10247;DHT22;5168;47.854;7.944;2024-03-06T02:37:15;1.30;99.90
10247;DHT22;5168;47.854;7.944;2024-03-06T02:39:41;1.10;99.90
10247;DHT22;5168;47.854;7.944;2024-03-06T02:42:07;1.20;99.90
10247;DHT22;5168;47.854;7.944;2024-03-06T02:44:32;0.90;99.90
10247;DHT22;5168;47.854;7.944;2024-03-06T02:54:17;3.80;99.90
10247;DHT22;5168;47.854;7.944;2024-03-06T02:56:42;1.00;99.90
10247;DHT22;5168;47.854;7.944;2024-03-06T02:59:08;1.10;99.90
10247;DHT22;5168;47.854;7.944;2024-03-06T03:01:34;1.10;99.90
10247;DHT22;5168;47.854;7.944;2024-03-06T03:03:59;1.00;99.90
10247;DHT22;5168;47.854;7.944;2024-03-06T03:16:16;1.10;99.90
10247;DHT22;5168;47.854;7.944;2024-03-06T03:18:43;1.10;99.90
10247;DHT22;5168;47.854;7.944;2024-03-06T03:23:38;0.70;99.90
10247;DHT22;5168;47.854;7.944;2024-03-06T03:26:05;0.90;99.90
10247;DHT22;5168;47.854;7.944;2024-03-06T03:28:30;0.80;99.90
10247;DHT22;5168;47.854;7.944;2024-03-06T03:33:22;1.70;99.90
10247;DHT22;5168;47.854;7.944;2024-03-06T03:35:48;1.00;99.90
10247;DHT22;5168;47.854;7.944;2024-03-06T03:43:06;0.90;99.90
10247;DHT22;5168;47.854;7.944;2024-03-06T03:45:32;1.10;99.90
10247;DHT22;5168;47.854;7.944;2024-03-06T03:48:03;1.00;99.90
10247;DHT22;5168;47.854;7.944;2024-03-06T03:55:24;1.00;99.90
10247;DHT22;5168;47.854;7.944;2024-03-06T03:57:50;0.80;99.90
10247;DHT22;5168;47.854;7.944;2024-03-06T04:00:16;1.00;99.90
10247;DHT22;5168;47.854;7.944;2024-03-06T04:02:42;1.20;99.90
10247;DHT22;5168;47.854;7.944;2024-03-06T04:07:35;1.00;99.90
10247;DHT22;5168;47.854;7.944;2024-03-06T04:10:02;1.00;99.90
10247;DHT22;5168;47.854;7.944;2024-03-06T04:14:53;1.00;99.90
10247;DHT22;5168;47.854;7.944;2024-03-06T04:17:19;0.90;99.90
10247;DHT22;5168;47.854;7.944;2024-03-06T04:22:13;0.80;99.90
10247;DHT22;5168;47.854;7.944;2024-03-06T04:24:41;0.90;99.90
10247;DHT22;5168;47.854;7.944;2024-03-06T04:27:08;0.90;99.90
10247;DHT22;5168;47.854;7.944;2024-03-06T04:29:33;0.90;99.90
10247;DHT22;5168;47.854;7.944;2024-03-06T04:36:50;1.00;99.90
10247;DHT22;5168;47.854;7.944;2024-03-06T04:39:16;0.80;99.90
10247;DHT22;5168;47.854;7.944;2024-03-06T04:41:42;1.00;99.90
10247;DHT22;5168;47.854;7.944;2024-03-06T04:48:59;1.50;99.90
10247;DHT22;5168;47.854;7.944;2024-03-06T04:51:24;0.70;99.90
10247;DHT22;5168;47.854;7.944;2024-03-06T04:53:50;0.80;99.90
10247;DHT22;5168;47.854;7.944;2024-03-06T05:06:04;0.70;99.90
10247;DHT22;5168;47.854;7.944;2024-03-06T05:25:32;0.30;99.90
10247;DHT22;5168;47.854;7.944;2024-03-06T05:30:24;0.70;99.90
10247;DHT22;5168;47.854;7.944;2024-03-06T05:32:50;0.30;99.90
10247;DHT22;5168;47.854;7.944;2024-03-06T05:37:42;0.60;99.90
10247;DHT22;5168;47.854;7.944;2024-03-06T05:40:08;0.60;99.90
10247;DHT22;5168;47.854;7.944;2024-03-06T05:42:34;0.70;99.90
10247;DHT22;5168;47.854;7.944;2024-03-06T05:47:31;0.60;99.90
10247;DHT22;5168;47.854;7.944;2024-03-06T05:49:57;1.40;99.90
10247;DHT22;5168;47.854;7.944;2024-03-06T05:52:22;0.50;99.90
10247;DHT22;5168;47.854;7.944;2024-03-06T06:11:50;0.70;99.90
10247;DHT22;5168;47.854;7.944;2024-03-06T06:14:16;0.60;99.90
10247;DHT22;5168;47.854;7.944;2024-03-06T06:16:42;0.50;99.90
10247;DHT22;5168;47.854;7.944;2024-03-06T06:19:08;0.60;99.90
10247;DHT22;5168;47.854;7.944;2024-03-06T06:21:34;0.80;99.90
10247;DHT22;5168;47.854;7.944;2024-03-06T06:24:01;0.90;99.90
10247;DHT22;5168;47.854;7.944;2024-03-06T06:26:29;0.70;99.90
10247;DHT22;5168;47.854;7.944;2024-03-06T06:28:54;0.70;99.90
10247;DHT22;5168;47.854;7.944;2024-03-06T06:33:46;1.50;99.90
10247;DHT22;5168;47.854;7.944;2024-03-06T06:36:12;0.70;99.90
10247;DHT22;5168;47.854;7.944;2024-03-06T06:43:30;0.60;99.90
10247;DHT22;5168;47.854;7.944;2024-03-06T06:45:55;0.50;99.90
10247;DHT22;5168;47.854;7.944;2024-03-06T06:48:21;0.60;99.90
10247;DHT22;5168;47.854;7.944;2024-03-06T06:53:13;0.70;99.90
10247;DHT22;5168;47.854;7.944;2024-03-06T06:55:39;0.70;99.90
10247;DHT22;5168;47.854;7.944;2024-03-06T06:58:04;0.60;99.90
10247;DHT22;5168;47.854;7.944;2024-03-06T07:00:30;1.00;99.90
10247;DHT22;5168;47.854;7.944;2024-03-06T07:02:56;0.60;99.90
10247;DHT22;5168;47.854;7.944;2024-03-06T07:05:24;0.70;99.90
10247;DHT22;5168;47.854;7.944;2024-03-06T07:07:49;0.80;99.90
10247;DHT22;5168;47.854;7.944;2024-03-06T07:10:15;0.90;99.90
10247;DHT22;5168;47.854;7.944;2024-03-06T07:12:40;1.10;99.90
10247;DHT22;5168;47.854;7.944;2024-03-06T07:15:06;0.70;99.90
10247;DHT22;5168;47.854;7.944;2024-03-06T07:27:16;1.10;99.90
10247;DHT22;5168;47.854;7.944;2024-03-06T07:29:41;1.10;99.90
10247;DHT22;5168;47.854;7.944;2024-03-06T07:32:07;1.10;99.90
10247;DHT22;5168;47.854;7.944;2024-03-06T07:34:32;1.10;99.90
10247;DHT22;5168;47.854;7.944;2024-03-06T07:41:54;1.10;99.90
10247;DHT22;5168;47.854;7.944;2024-03-06T07:44:20;1.10;99.90
10247;DHT22;5168;47.854;7.944;2024-03-06T07:46:45;1.30;99.90
10247;DHT22;5168;47.854;7.944;2024-03-06T07:56:32;1.40;99.90
10247;DHT22;5168;47.854;7.944;2024-03-06T07:58:59;1.60;99.90
10247;DHT22;5168;47.854;7.944;2024-03-06T08:03:54;1.70;99.90
10247;DHT22;5168;47.854;7.944;2024-03-06T08:06:20;2.00;99.90
10247;DHT22;5168;47.854;7.944;2024-03-06T08:11:12;1.90;99.90
10247;DHT22;5168;47.854;7.944;2024-03-06T08:13:38;2.10;99.90
10247;DHT22;5168;47.854;7.944;2024-03-06T08:16:08;2.50;99.90
10247;DHT22;5168;47.854;7.944;2024-03-06T08:18:34;2.20;99.90
10247;DHT22;5168;47.854;7.944;2024-03-06T08:21:00;2.10;99.90
10247;DHT22;5168;47.854;7.944;2024-03-06T08:23:26;2.50;99.90
10247;DHT22;5168;47.854;7.944;2024-03-06T08:25:52;2.60;99.90
10247;DHT22;5168;47.854;7.944;2024-03-06T08:33:12;2.60;99.90
10247;DHT22;5168;47.854;7.944;2024-03-06T08:35:38;2.80;99.90
10247;DHT22;5168;47.854;7.944;2024-03-06T08:38:04;2.90;99.90
10247;DHT22;5168;47.854;7.944;2024-03-06T08:43:11;2.90;99.90
10247;DHT22;5168;47.854;7.944;2024-03-06T08:45:38;3.30;99.90
10247;DHT22;5168;47.854;7.944;2024-03-06T08:48:04;3.50;99.90
10247;DHT22;5168;47.854;7.944;2024-03-06T08:50:31;3.20;99.90
10247;DHT22;5168;47.854;7.944;2024-03-06T08:52:56;3.10;99.90
10247;DHT22;5168;47.854;7.944;2024-03-06T08:55:22;4.00;99.90
10247;DHT22;5168;47.854;7.944;2024-03-06T09:00:15;3.60;99.90
10247;DHT22;5168;47.854;7.944;2024-03-06T09:02:43;4.10;99.90
10247;DHT22;5168;47.854;7.944;2024-03-06T09:05:09;4.10;99.90
10247;DHT22;5168;47.854;7.944;2024-03-06T09:07:36;3.90;99.90
10247;DHT22;5168;47.854;7.944;2024-03-06T09:10:07;3.60;99.90
10247;DHT22;5168;47.854;7.944;2024-03-06T09:12:33;4.00;99.90
10247;DHT22;5168;47.854;7.944;2024-03-06T09:17:26;3.70;99.90
10247;DHT22;5168;47.854;7.944;2024-03-06T09:19:51;3.90;99.90
10247;DHT22;5168;47.854;7.944;2024-03-06T09:29:35;5.10;99.90
10247;DHT22;5168;47.854;7.944;2024-03-06T09:34:27;5.80;99.90
10247;DHT22;5168;47.854;7.944;2024-03-06T09:36:52;6.20;99.90
10247;DHT22;5168;47.854;7.944;2024-03-06T09:39:19;6.30;99.90
10247;DHT22;5168;47.854;7.944;2024-03-06T09:41:51;6.10;99.90
10247;DHT22;5168;47.854;7.944;2024-03-06T09:44:17;6.80;99.90
10247;DHT22;5168;47.854;7.944;2024-03-06T09:46:44;7.10;99.90
10247;DHT22;5168;47.854;7.944;2024-03-06T09:49:15;6.70;99.90
10247;DHT22;5168;47.854;7.944;2024-03-06T09:51:43;6.70;99.90
10247;DHT22;5168;47.854;7.944;2024-03-06T09:54:13;6.40;99.90
10247;DHT22;5168;47.854;7.944;2024-03-06T09:56:44;6.30;99.90
10247;DHT22;5168;47.854;7.944;2024-03-06T09:59:10;6.00;99.90
10247;DHT22;5168;47.854;7.944;2024-03-06T10:01:40;5.90;99.90
10247;DHT22;5168;47.854;7.944;2024-03-06T10:06:47;5.60;99.90
10247;DHT22;5168;47.854;7.944;2024-03-06T10:09:17;5.90;99.90
10247;DHT22;5168;47.854;7.944;2024-03-06T10:16:38;5.80;99.90
10247;DHT22;5168;47.854;7.944;2024-03-06T10:19:17;6.20;99.90
10247;DHT22;5168;47.854;7.944;2024-03-06T10:21:44;6.30;99.90
10247;DHT22;5168;47.854;7.944;2024-03-06T10:26:36;5.80;99.90
10247;DHT22;5168;47.854;7.944;2024-03-06T10:29:02;5.80;99.90
10247;DHT22;5168;47.854;7.944;2024-03-06T10:38:49;6.00;99.90
10247;DHT22;5168;47.854;7.944;2024-03-06T10:41:19;5.70;99.90
10247;DHT22;5168;47.854;7.944;2024-03-06T10:43:49;5.90;99.90
10247;DHT22;5168;47.854;7.944;2024-03-06T10:46:18;5.70;99.90
10247;DHT22;5168;47.854;7.944;2024-03-06T10:48:46;5.70;99.90
10247;DHT22;5168;47.854;7.944;2024-03-06T10:51:13;5.60;99.90
10247;DHT22;5168;47.854;7.944;2024-03-06T10:53:40;5.70;99.90
10247;DHT22;5168;47.854;7.944;2024-03-06T10:56:08;5.10;99.90
10247;DHT22;5168;47.854;7.944;2024-03-06T10:58:35;5.00;99.90
10247;DHT22;5168;47.854;7.944;2024-03-06T11:01:01;5.30;99.90
10247;DHT22;5168;47.854;7.944;2024-03-06T11:03:28;5.50;99.90
10247;DHT22;5168;47.854;7.944;2024-03-06T11:05:56;5.10;99.90
10247;DHT22;5168;47.854;7.944;2024-03-06T11:08:21;5.30;99.90
10247;DHT22;5168;47.854;7.944;2024-03-06T11:15:50;6.90;99.90
10247;DHT22;5168;47.854;7.944;2024-03-06T11:23:32;5.90;99.90
10247;DHT22;5168;47.854;7.944;2024-03-06T11:26:05;5.60;99.90
10247;DHT22;5168;47.854;7.944;2024-03-06T11:28:35;5.70;99.90
10247;DHT22;5168;47.854;7.944;2024-03-06T11:31:14;5.60;99.90
10247;DHT22;5168;47.854;7.944;2024-03-06T11:33:45;5.70;99.90
10247;DHT22;5168;47.854;7.944;2024-03-06T11:36:26;5.90;99.90
10247;DHT22;5168;47.854;7.944;2024-03-06T11:46:49;6.60;99.90
10247;DHT22;5168;47.854;7.944;2024-03-06T11:49:22;5.80;99.90
10247;DHT22;5168;47.854;7.944;2024-03-06T11:51:52;6.10;99.90
10247;DHT22;5168;47.854;7.944;2024-03-06T11:56:49;6.50;99.90
10247;DHT22;5168;47.854;7.944;2024-03-06T11:59:16;6.20;99.90
10247;DHT22;5168;47.854;7.944;2024-03-06T12:01:42;6.40;99.90
10247;DHT22;5168;47.854;7.944;2024-03-06T12:06:35;7.70;99.90
10247;DHT22;5168;47.854;7.944;2024-03-06T12:11:27;5.30;99.90
10247;DHT22;5168;47.854;7.944;2024-03-06T12:13:54;5.50;99.90
10247;DHT22;5168;47.854;7.944;2024-03-06T12:16:20;5.90;99.90
10247;DHT22;5168;47.854;7.944;2024-03-06T12:18:45;5.30;99.90
10247;DHT22;5168;47.854;7.944;2024-03-06T12:21:12;5.60;99.90
10247;DHT22;5168;47.854;7.944;2024-03-06T12:26:06;5.20;99.90
10247;DHT22;5168;47.854;7.944;2024-03-06T12:28:34;5.30;99.90
10247;DHT22;5168;47.854;7.944;2024-03-06T12:31:08;5.50;99.90
10247;DHT22;5168;47.854;7.944;2024-03-06T12:33:34;5.50;99.90
10247;DHT22;5168;47.854;7.944;2024-03-06T12:36:04;5.60;99.90
10247;DHT22;5168;47.854;7.944;2024-03-06T12:38:30;5.10;99.90
10247;DHT22;5168;47.854;7.944;2024-03-06T12:40:56;5.10;99.90
10247;DHT22;5168;47.854;7.944;2024-03-06T12:43:22;5.00;99.90
10247;DHT22;5168;47.854;7.944;2024-03-06T12:45:47;5.10;99.90
10247;DHT22;5168;47.854;7.944;2024-03-06T12:48:13;5.40;99.90
10247;DHT22;5168;47.854;7.944;2024-03-06T12:50:38;5.00;99.90
10247;DHT22;5168;47.854;7.944;2024-03-06T12:53:04;5.40;99.90
10247;DHT22;5168;47.854;7.944;2024-03-06T12:55:31;5.10;99.90
10247;DHT22;5168;47.854;7.944;2024-03-06T12:57:57;5.00;99.90
10247;DHT22;5168;47.854;7.944;2024-03-06T13:00:23;4.70;99.90
10247;DHT22;5168;47.854;7.944;2024-03-06T13:02:50;4.50;99.90
10247;DHT22;5168;47.854;7.944;2024-03-06T13:10:11;5.00;99.90
10247;DHT22;5168;47.854;7.944;2024-03-06T13:12:38;5.10;99.90
10247;DHT22;5168;47.854;7.944;2024-03-06T13:15:04;4.80;99.90
10247;DHT22;5168;47.854;7.944;2024-03-06T13:17:30;4.50;99.90
10247;DHT22;5168;47.854;7.944;2024-03-06T13:19:56;4.70;99.90
10247;DHT22;5168;47.854;7.944;2024-03-06T13:24:48;5.20;99.90
10247;DHT22;5168;47.854;7.944;2024-03-06T13:27:14;5.10;99.90
10247;DHT22;5168;47.854;7.944;2024-03-06T13:29:39;5.30;99.90
10247;DHT22;5168;47.854;7.944;2024-03-06T13:32:07;5.10;99.90
10247;DHT22;5168;47.854;7.944;2024-03-06T13:34:32;5.40;99.90
10247;DHT22;5168;47.854;7.944;2024-03-06T13:36:58;5.40;99.90
10247;DHT22;5168;47.854;7.944;2024-03-06T13:39:24;5.20;99.90
10247;DHT22;5168;47.854;7.944;2024-03-06T13:41:50;5.90;99.90
10247;DHT22;5168;47.854;7.944;2024-03-06T13:49:22;5.70;99.90
10247;DHT22;5168;47.854;7.944;2024-03-06T13:51:57;6.10;99.90
10247;DHT22;5168;47.854;7.944;2024-03-06T13:54:22;5.80;99.90
10247;DHT22;5168;47.854;7.944;2024-03-06T13:56:48;5.80;99.90
10247;DHT22;5168;47.854;7.944;2024-03-06T13:59:13;5.90;99.90
10247;DHT22;5168;47.854;7.944;2024-03-06T14:01:39;5.40;99.90
10247;DHT22;5168;47.854;7.944;2024-03-06T14:04:05;5.40;99.90
10247;DHT22;5168;47.854;7.944;2024-03-06T14:06:31;5.70;99.90
10247;DHT22;5168;47.854;7.944;2024-03-06T14:13:48;5.50;99.90
10247;DHT22;5168;47.854;7.944;2024-03-06T14:18:40;5.40;99.90
10247;DHT22;5168;47.854;7.944;2024-03-06T14:30:50;5.00;99.90
10247;DHT22;5168;47.854;7.944;2024-03-06T14:35:41;5.00;99.90
10247;DHT22;5168;47.854;7.944;2024-03-06T14:38:07;4.90;99.90
10247;DHT22;5168;47.854;7.944;2024-03-06T14:40:32;5.10;99.90
10247;DHT22;5168;47.854;7.944;2024-03-06T14:42:59;5.30;99.90
10247;DHT22;5168;47.854;7.944;2024-03-06T14:47:51;5.10;99.90
10247;DHT22;5168;47.854;7.944;2024-03-06T14:52:42;4.70;99.90
10247;DHT22;5168;47.854;7.944;2024-03-06T14:57:34;4.20;99.90
10247;DHT22;5168;47.854;7.944;2024-03-06T15:00:00;4.20;99.90
10247;DHT22;5168;47.854;7.944;2024-03-06T15:02:25;3.80;99.90
10247;DHT22;5168;47.854;7.944;2024-03-06T15:07:17;4.10;99.90
10247;DHT22;5168;47.854;7.944;2024-03-06T15:09:42;4.00;99.90
10247;DHT22;5168;47.854;7.944;2024-03-06T15:12:08;3.50;99.90
10247;DHT22;5168;47.854;7.944;2024-03-06T15:14:34;3.80;99.90
10247;DHT22;5168;47.854;7.944;2024-03-06T15:16:59;3.40;99.90
10247;DHT22;5168;47.854;7.944;2024-03-06T15:19:25;3.90;99.90
10247;DHT22;5168;47.854;7.944;2024-03-06T15:21:51;3.40;99.90
10247;DHT22;5168;47.854;7.944;2024-03-06T15:26:42;3.80;99.90
10247;DHT22;5168;47.854;7.944;2024-03-06T15:31:35;3.20;99.90
10247;DHT22;5168;47.854;7.944;2024-03-06T15:34:00;3.00;99.90
10247;DHT22;5168;47.854;7.944;2024-03-06T15:36:27;3.10;99.90
10247;DHT22;5168;47.854;7.944;2024-03-06T15:41:22;3.00;99.90
10247;DHT22;5168;47.854;7.944;2024-03-06T15:43:47;3.40;99.90
10247;DHT22;5168;47.854;7.944;2024-03-06T15:48:39;2.90;99.90
10247;DHT22;5168;47.854;7.944;2024-03-06T15:53:32;3.10;99.90
10247;DHT22;5168;47.854;7.944;2024-03-06T15:58:24;3.10;99.90
10247;DHT22;5168;47.854;7.944;2024-03-06T16:00:50;2.70;99.90
10247;DHT22;5168;47.854;7.944;2024-03-06T16:05:42;2.80;99.90
10247;DHT22;5168;47.854;7.944;2024-03-06T16:10:34;2.70;99.90
10247;DHT22;5168;47.854;7.944;2024-03-06T16:15:25;3.00;99.90
10247;DHT22;5168;47.854;7.944;2024-03-06T16:17:51;3.00;99.90
10247;DHT22;5168;47.854;7.944;2024-03-06T16:20:17;2.60;99.90
10247;DHT22;5168;47.854;7.944;2024-03-06T16:22:42;2.40;99.90
10247;DHT22;5168;47.854;7.944;2024-03-06T16:30:00;2.30;99.90
10247;DHT22;5168;47.854;7.944;2024-03-06T16:32:27;2.50;99.90
10247;DHT22;5168;47.854;7.944;2024-03-06T16:34:53;2.50;99.90
10247;DHT22;5168;47.854;7.944;2024-03-06T16:44:40;2.10;99.90
10247;DHT22;5168;47.854;7.944;2024-03-06T16:47:06;2.30;99.90
10247;DHT22;5168;47.854;7.944;2024-03-06T16:49:31;2.10;99.90
10247;DHT22;5168;47.854;7.944;2024-03-06T16:59:15;2.10;99.90
10247;DHT22;5168;47.854;7.944;2024-03-06T17:01:41;1.90;99.90
10247;DHT22;5168;47.854;7.944;2024-03-06T17:04:06;1.60;99.90
10247;DHT22;5168;47.854;7.944;2024-03-06T17:06:32;1.70;99.90
10247;DHT22;5168;47.854;7.944;2024-03-06T17:08:59;1.60;99.90
10247;DHT22;5168;47.854;7.944;2024-03-06T17:11:25;1.40;99.90
10247;DHT22;5168;47.854;7.944;2024-03-06T17:23:35;1.60;99.90
10247;DHT22;5168;47.854;7.944;2024-03-06T17:26:01;1.60;99.90
10247;DHT22;5168;47.854;7.944;2024-03-06T17:28:27;1.70;99.90
10247;DHT22;5168;47.854;7.944;2024-03-06T17:30:53;1.80;99.90
10247;DHT22;5168;47.854;7.944;2024-03-06T17:33:20;1.70;99.90
10247;DHT22;5168;47.854;7.944;2024-03-06T17:35:46;2.10;99.90
10247;DHT22;5168;47.854;7.944;2024-03-06T17:38:14;1.50;99.90
10247;DHT22;5168;47.854;7.944;2024-03-06T17:48:00;1.30;99.90
10247;DHT22;5168;47.854;7.944;2024-03-06T17:50:25;1.30;99.90
10247;DHT22;5168;47.854;7.944;2024-03-06T17:52:51;1.30;99.90
10247;DHT22;5168;47.854;7.944;2024-03-06T17:55:16;1.30;99.90
10247;DHT22;5168;47.854;7.944;2024-03-06T18:00:20;1.20;99.90
10247;DHT22;5168;47.854;7.944;2024-03-06T18:02:45;1.30;99.90
10247;DHT22;5168;47.854;7.944;2024-03-06T18:05:11;1.30;99.90
10247;DHT22;5168;47.854;7.944;2024-03-06T18:07:40;1.10;99.90
10247;DHT22;5168;47.854;7.944;2024-03-06T18:10:07;1.20;99.90
10247;DHT22;5168;47.854;7.944;2024-03-06T18:19:54;1.20;99.90
10247;DHT22;5168;47.854;7.944;2024-03-06T18:24:45;1.10;99.90
10247;DHT22;5168;47.854;7.944;2024-03-06T18:32:04;1.20;99.90
10247;DHT22;5168;47.854;7.944;2024-03-06T18:36:59;1.10;99.90
10247;DHT22;5168;47.854;7.944;2024-03-06T18:41:50;1.10;99.90
10247;DHT22;5168;47.854;7.944;2024-03-06T18:46:42;0.90;99.90
10247;DHT22;5168;47.854;7.944;2024-03-06T18:51:36;0.80;99.90
10247;DHT22;5168;47.854;7.944;2024-03-06T18:54:01;1.20;99.90
10247;DHT22;5168;47.854;7.944;2024-03-06T18:56:27;0.90;99.90
10247;DHT22;5168;47.854;7.944;2024-03-06T19:03:45;0.90;99.90
10247;DHT22;5168;47.854;7.944;2024-03-06T19:08:37;2.60;99.90
10247;DHT22;5168;47.854;7.944;2024-03-06T19:32:58;1.00;99.90
10247;DHT22;5168;47.854;7.944;2024-03-06T19:35:23;1.00;99.90
10247;DHT22;5168;47.854;7.944;2024-03-06T19:45:08;1.00;99.90
10247;DHT22;5168;47.854;7.944;2024-03-06T19:47:35;0.80;99.90
10247;DHT22;5168;47.854;7.944;2024-03-06T19:50:01;0.80;99.90
10247;DHT22;5168;47.854;7.944;2024-03-06T19:54:54;0.90;99.90
10247;DHT22;5168;47.854;7.944;2024-03-06T19:57:20;1.00;99.90
10247;DHT22;5168;47.854;7.944;2024-03-06T19:59:45;0.80;99.90
10247;DHT22;5168;47.854;7.944;2024-03-06T20:07:03;1.10;99.90
10247;DHT22;5168;47.854;7.944;2024-03-06T20:11:54;0.70;99.90
10247;DHT22;5168;47.854;7.944;2024-03-06T20:16:46;0.90;99.90
10247;DHT22;5168;47.854;7.944;2024-03-06T20:19:12;0.90;99.90
10247;DHT22;5168;47.854;7.944;2024-03-06T20:24:04;0.90;99.90
10247;DHT22;5168;47.854;7.944;2024-03-06T20:28:57;1.00;99.90
10247;DHT22;5168;47.854;7.944;2024-03-06T20:31:23;0.90;99.90
10247;DHT22;5168;47.854;7.944;2024-03-06T20:33:49;1.10;99.90
10247;DHT22;5168;47.854;7.944;2024-03-06T20:36:16;1.00;99.90
10247;DHT22;5168;47.854;7.944;2024-03-06T20:38:41;1.00;99.90
10247;DHT22;5168;47.854;7.944;2024-03-06T20:41:07;1.10;99.90
10247;DHT22;5168;47.854;7.944;2024-03-06T20:46:05;1.00;99.90
10247;DHT22;5168;47.854;7.944;2024-03-06T20:48:32;0.90;99.90
10247;DHT22;5168;47.854;7.944;2024-03-06T20:50:58;1.10;99.90
10247;DHT22;5168;47.854;7.944;2024-03-06T20:55:50;0.80;99.90
10247;DHT22;5168;47.854;7.944;2024-03-06T20:58:16;1.00;99.90
10247;DHT22;5168;47.854;7.944;2024-03-06T21:00:42;0.90;99.90
10247;DHT22;5168;47.854;7.944;2024-03-06T21:15:19;1.00;99.90
10247;DHT22;5168;47.854;7.944;2024-03-06T21:17:45;1.00;99.90
10247;DHT22;5168;47.854;7.944;2024-03-06T21:22:41;0.60;99.90
10247;DHT22;5168;47.854;7.944;2024-03-06T21:25:08;0.70;99.90
10247;DHT22;5168;47.854;7.944;2024-03-06T21:27:34;1.00;99.90
10247;DHT22;5168;47.854;7.944;2024-03-06T21:30:00;0.80;99.90
10247;DHT22;5168;47.854;7.944;2024-03-06T21:32:26;0.80;99.90
10247;DHT22;5168;47.854;7.944;2024-03-06T21:34:52;0.90;99.90
10247;DHT22;5168;47.854;7.944;2024-03-06T21:37:18;1.00;99.90
10247;DHT22;5168;47.854;7.944;2024-03-06T21:49:27;1.00;99.90
10247;DHT22;5168;47.854;7.944;2024-03-06T21:51:58;0.50;99.90
10247;DHT22;5168;47.854;7.944;2024-03-06T21:54:24;1.00;99.90
10247;DHT22;5168;47.854;7.944;2024-03-06T22:06:39;1.00;99.90
10247;DHT22;5168;47.854;7.944;2024-03-06T22:09:07;1.00;99.90
10247;DHT22;5168;47.854;7.944;2024-03-06T22:11:42;1.30;99.90
10247;DHT22;5168;47.854;7.944;2024-03-06T22:14:08;1.20;99.90
10247;DHT22;5168;47.854;7.944;2024-03-06T22:16:39;1.30;99.90
10247;DHT22;5168;47.854;7.944;2024-03-06T22:19:05;1.10;99.90
10247;DHT22;5168;47.854;7.944;2024-03-06T22:21:30;1.20;99.90
10247;DHT22;5168;47.854;7.944;2024-03-06T22:31:15;1.50;99.90
10247;DHT22;5168;47.854;7.944;2024-03-06T22:33:42;1.20;99.90
10247;DHT22;5168;47.854;7.944;2024-03-06T22:36:08;1.50;99.90
10247;DHT22;5168;47.854;7.944;2024-03-06T22:38:39;1.50;99.90
10247;DHT22;5168;47.854;7.944;2024-03-06T22:41:05;1.50;99.90
10247;DHT22;5168;47.854;7.944;2024-03-06T22:43:30;1.60;99.90
10247;DHT22;5168;47.854;7.944;2024-03-06T22:48:21;1.60;99.90
10247;DHT22;5168;47.854;7.944;2024-03-06T22:50:47;1.50;99.90
10247;DHT22;5168;47.854;7.944;2024-03-06T22:55:41;2.30;99.90
10247;DHT22;5168;47.854;7.944;2024-03-06T22:58:07;1.30;99.90
10247;DHT22;5168;47.854;7.944;2024-03-06T23:03:04;1.20;99.90
10247;DHT22;5168;47.854;7.944;2024-03-06T23:05:31;1.80;99.90
10247;DHT22;5168;47.854;7.944;2024-03-06T23:07:56;1.60;99.90
10247;DHT22;5168;47.854;7.944;2024-03-06T23:10:22;1.40;99.90
10247;DHT22;5168;47.854;7.944;2024-03-06T23:12:47;1.30;99.90
10247;DHT22;5168;47.854;7.944;2024-03-06T23:15:14;1.20;99.90
10247;DHT22;5168;47.854;7.944;2024-03-06T23:17:44;1.40;99.90
10247;DHT22;5168;47.854;7.944;2024-03-06T23:20:14;1.50;99.90
10247;DHT22;5168;47.854;7.944;2024-03-06T23:22:42;1.30;99.90
10247;DHT22;5168;47.854;7.944;2024-03-06T23:25:09;1.80;99.90
10247;DHT22;5168;47.854;7.944;2024-03-06T23:27:39;1.50;99.90
10247;DHT22;5168;47.854;7.944;2024-03-06T23:32:33;1.40;99.90
10247;DHT22;5168;47.854;7.944;2024-03-06T23:34:59;1.60;99.90
10247;DHT22;5168;47.854;7.944;2024-03-06T23:37:25;1.50;99.90
10247;DHT22;5168;47.854;7.944;2024-03-06T23:39:50;1.70;99.90
10247;DHT22;5168;47.854;7.944;2024-03-06T23:47:08;1.90;99.90
10247;DHT22;5168;47.854;7.944;2024-03-06T23:49:33;1.90;99.90
10247;DHT22;5168;47.854;7.944;2024-03-06T23:54:25;1.70;99.90
